Time;durP1;ratioP1;P1;durP2;ratioP2;P2;SDS_P1;SDS_P2;PMS_P1;PMS_P2;Temp;Humidity;BMP_temperature;BMP_pressure;BME280_temperature;BME280_humidity;BME280_pressure;Samples;Min_cycle;Max_cycle;Signal;HPM_P1;HPM_P2
2022/03/26 00:01:34;;;;;;;5.20;2.80;;;26.90;32.20;;;;;;5071359;28;20467;-64
2022/03/26 00:04:02;;;;;;;4.65;3.13;;;26.80;32.20;;;;;;5072948;28;20044;-66
2022/03/26 00:06:29;;;;;;;5.35;4.85;;;26.70;32.20;;;;;;5071391;28;20047;-65
2022/03/26 00:08:57;;;;;;;6.05;4.00;;;26.70;32.30;;;;;;5071523;28;20044;-65
2022/03/26 00:11:24;;;;;;;7.72;4.03;;;26.70;32.30;;;;;;5072072;28;20431;-65
2022/03/26 00:13:51;;;;;;;5.90;4.22;;;26.60;32.30;;;;;;5076289;28;20147;-65
2022/03/26 00:16:20;;;;;;;5.50;4.03;;;26.50;32.30;;;;;;5072497;28;20134;-65
2022/03/26 00:18:47;;;;;;;6.50;4.93;;;26.50;32.40;;;;;;5078910;28;20570;-65
2022/03/26 00:21:15;;;;;;;5.43;4.07;;;26.40;32.40;;;;;;5077281;28;20050;-62
2022/03/26 00:23:43;;;;;;;6.38;4.07;;;26.40;32.50;;;;;;5073601;28;20040;-63
2022/03/26 00:26:11;;;;;;;5.97;3.78;;;26.40;32.60;;;;;;5072267;28;20044;-63
2022/03/26 00:28:39;;;;;;;5.03;3.88;;;26.30;32.60;;;;;;5080175;28;20044;-62
2022/03/26 00:31:08;;;;;;;4.45;3.95;;;26.30;32.70;;;;;;5072011;28;20772;-63
2022/03/26 00:33:38;;;;;;;6.82;5.15;;;26.20;32.70;;;;;;5069274;28;20043;-63
2022/03/26 00:36:06;;;;;;;6.30;4.20;;;26.20;32.90;;;;;;5072477;28;20131;-64
2022/03/26 00:38:33;;;;;;;5.80;3.65;;;26.10;32.90;;;;;;5075687;28;20146;-64
2022/03/26 00:41:00;;;;;;;5.70;3.42;;;26.00;32.90;;;;;;5070204;28;20640;-64
2022/03/26 00:43:27;;;;;;;6.13;3.45;;;26.00;33.00;;;;;;5074463;28;20063;-64
2022/03/26 00:45:54;;;;;;;6.68;3.78;;;26.00;33.10;;;;;;5070369;28;20094;-63
2022/03/26 00:48:23;;;;;;;7.20;4.60;;;25.90;33.10;;;;;;5080108;28;20052;-64
2022/03/26 00:50:51;;;;;;;5.25;3.67;;;25.90;33.30;;;;;;5070733;28;20055;-64
2022/03/26 00:53:19;;;;;;;4.60;3.67;;;25.90;33.40;;;;;;5077139;28;20071;-64
2022/03/26 00:55:46;;;;;;;6.80;3.80;;;25.80;33.40;;;;;;5073906;28;20494;-64
2022/03/26 00:58:13;;;;;;;6.15;3.90;;;25.70;33.50;;;;;;5068359;28;20043;-64
2022/03/26 01:00:42;;;;;;;4.35;3.78;;;25.70;33.60;;;;;;5068491;28;20040;-64
2022/03/26 01:03:09;;;;;;;4.60;3.92;;;25.70;33.60;;;;;;5072501;28;20037;-64
2022/03/26 01:05:37;;;;;;;3.72;3.35;;;25.70;33.70;;;;;;5070109;28;20053;-65
2022/03/26 01:08:07;;;;;;;3.85;3.08;;;25.70;33.90;;;;;;5072758;28;20059;-64
2022/03/26 01:10:34;;;;;;;6.38;3.85;;;25.60;33.90;;;;;;5076014;28;20419;-63
2022/03/26 01:13:02;;;;;;;6.10;2.55;;;25.60;34.00;;;;;;5071607;28;20044;-63
2022/03/26 01:15:29;;;;;;;4.53;2.95;;;25.50;34.00;;;;;;5070363;28;20041;-63
2022/03/26 01:17:56;;;;;;;8.55;3.10;;;25.50;34.20;;;;;;5069705;28;20598;-63
2022/03/26 01:20:24;;;;;;;3.42;3.13;;;25.40;34.20;;;;;;5077699;28;20039;-62
2022/03/26 01:22:51;;;;;;;3.92;3.13;;;25.40;34.30;;;;;;5067000;28;20178;-64
2022/03/26 01:25:19;;;;;;;4.78;4.38;;;25.30;34.30;;;;;;5072494;28;20124;-63
2022/03/26 01:27:46;;;;;;;4.03;3.20;;;25.30;34.40;;;;;;5075877;28;20078;-63
2022/03/26 01:30:14;;;;;;;4.68;3.20;;;25.30;34.40;;;;;;5076487;28;20036;-63
2022/03/26 01:32:43;;;;;;;4.15;3.45;;;25.30;34.50;;;;;;5071435;28;20501;-62
2022/03/26 01:35:11;;;;;;;7.10;3.67;;;25.30;34.50;;;;;;5074328;28;20036;-59
2022/03/26 01:37:38;;;;;;;4.85;3.70;;;25.30;34.60;;;;;;5066284;28;20409;-62
2022/03/26 01:40:08;;;;;;;6.07;3.83;;;25.20;34.50;;;;;;5073283;28;20047;-61
2022/03/26 01:42:37;;;;;;;6.47;4.35;;;25.20;34.60;;;;;;5075930;28;20048;-61
2022/03/26 01:45:05;;;;;;;3.42;2.70;;;25.10;34.50;;;;;;5075208;28;20033;-62
2022/03/26 01:47:32;;;;;;;4.68;3.53;;;25.10;34.60;;;;;;5071506;28;20062;-62
2022/03/26 01:49:59;;;;;;;9.40;4.68;;;25.10;34.60;;;;;;5069307;28;20054;-62
2022/03/26 01:52:26;;;;;;;6.78;3.45;;;25.00;34.50;;;;;;5076387;28;20044;-62
2022/03/26 01:54:54;;;;;;;5.00;4.13;;;25.00;34.50;;;;;;5074944;28;20072;-63
2022/03/26 01:57:21;;;;;;;3.65;3.15;;;25.00;34.50;;;;;;5073601;28;20040;-64
2022/03/26 01:59:50;;;;;;;4.00;3.63;;;25.00;34.50;;;;;;5081370;28;20051;-64
2022/03/26 02:02:17;;;;;;;5.28;4.18;;;24.90;34.50;;;;;;5061548;28;20052;-63
2022/03/26 02:04:44;;;;;;;5.10;4.38;;;24.90;34.60;;;;;;5074586;28;20036;-64
2022/03/26 02:07:11;;;;;;;4.15;3.72;;;24.90;34.60;;;;;;5076523;28;20220;-63
2022/03/26 02:09:39;;;;;;;5.00;2.95;;;24.90;34.60;;;;;;5078702;28;20132;-63
2022/03/26 02:12:22;;;;;;;4.00;3.30;;;24.90;34.60;;;;;;5081245;28;20044;-63
2022/03/26 02:14:51;;;;;;;4.70;3.78;;;24.90;34.60;;;;;;5073118;28;20076;-63
2022/03/26 02:17:18;;;;;;;3.08;2.80;;;24.80;34.60;;;;;;5075097;28;20052;-64
2022/03/26 02:19:49;;;;;;;3.20;2.83;;;24.80;34.60;;;;;;5074679;28;20127;-57
2022/03/26 02:22:17;;;;;;;5.95;3.15;;;24.80;34.60;;;;;;5073330;28;20037;-62
2022/03/26 02:24:44;;;;;;;6.13;3.42;;;24.80;34.60;;;;;;5079531;28;20032;-62
2022/03/26 02:27:11;;;;;;;3.38;3.08;;;24.70;34.60;;;;;;5079447;28;20127;-61
2022/03/26 02:29:39;;;;;;;3.60;3.30;;;24.70;34.60;;;;;;5074698;28;20040;-61
2022/03/26 02:32:07;;;;;;;2.97;2.75;;;24.70;34.60;;;;;;5072663;28;20576;-62
2022/03/26 02:34:34;;;;;;;6.25;3.88;;;24.70;34.60;;;;;;5072201;28;20471;-61
2022/03/26 02:37:03;;;;;;;5.05;2.95;;;24.70;34.60;;;;;;5070131;28;20075;-61
2022/03/26 02:39:30;;;;;;;3.00;2.80;;;24.70;34.70;;;;;;5070727;28;20065;-60
2022/03/26 02:41:58;;;;;;;5.35;3.78;;;24.60;34.60;;;;;;5075018;28;20126;-62
2022/03/26 02:44:25;;;;;;;4.65;4.00;;;24.60;34.60;;;;;;5081163;28;20044;-62
2022/03/26 02:46:52;;;;;;;3.35;3.03;;;24.60;34.60;;;;;;5074902;28;20050;-61
2022/03/26 02:49:19;;;;;;;3.05;2.30;;;24.60;34.60;;;;;;5083412;28;20032;-62
2022/03/26 02:51:46;;;;;;;3.78;3.47;;;24.60;34.60;;;;;;5071480;28;20540;-63
2022/03/26 02:54:19;;;;;;;5.97;3.42;;;24.60;34.60;;;;;;5075659;28;20123;-63
2022/03/26 02:56:46;;;;;;;3.10;2.90;;;24.60;34.70;;;;;;5073843;28;20085;-62
2022/03/26 02:59:14;;;;;;;4.75;3.50;;;24.50;34.60;;;;;;5080807;28;20043;-63
2022/03/26 03:01:41;;;;;;;4.95;3.10;;;24.50;34.60;;;;;;5072210;28;20055;-63
2022/03/26 03:04:09;;;;;;;3.42;3.15;;;24.50;34.70;;;;;;5075279;28;20048;-63
2022/03/26 03:06:36;;;;;;;3.63;3.28;;;24.50;35.30;;;;;;5070220;28;20085;-61
2022/03/26 03:09:04;;;;;;;3.78;3.47;;;24.50;34.60;;;;;;5076390;28;20036;-59
2022/03/26 03:11:34;;;;;;;6.75;3.22;;;24.50;34.60;;;;;;5081009;28;20123;-60
2022/03/26 03:14:01;;;;;;;7.43;2.85;;;24.50;34.60;;;;;;5078897;28;20040;-61
2022/03/26 03:16:28;;;;;;;4.22;3.83;;;24.40;34.60;;;;;;5071420;28;20043;-60
2022/03/26 03:18:55;;;;;;;6.47;3.97;;;24.40;34.60;;;;;;5071208;28;20521;-60
2022/03/26 03:21:22;;;;;;;6.18;3.80;;;24.40;34.60;;;;;;5075211;28;20072;-62
2022/03/26 03:23:50;;;;;;;5.85;4.22;;;24.40;34.60;;;;;;5072118;28;20045;-61
2022/03/26 03:26:17;;;;;;;6.07;3.42;;;24.40;34.70;;;;;;5075926;28;20086;-62
2022/03/26 03:28:45;;;;;;;3.13;2.83;;;24.40;34.60;;;;;;5077021;28;20044;-61
2022/03/26 03:31:13;;;;;;;3.40;2.92;;;24.40;35.30;;;;;;5072888;28;20488;-63
2022/03/26 03:33:40;;;;;;;3.58;3.33;;;24.40;34.70;;;;;;5077009;28;20047;-63
2022/03/26 03:36:07;;;;;;;3.85;3.55;;;24.30;34.60;;;;;;5076119;28;20456;-63
2022/03/26 03:38:34;;;;;;;7.75;3.72;;;24.30;34.70;;;;;;5077744;28;20044;-62
2022/03/26 03:41:01;;;;;;;3.80;3.35;;;24.30;34.60;;;;;;5070057;28;20669;-63
2022/03/26 03:43:28;;;;;;;3.15;2.80;;;24.30;34.60;;;;;;5080697;28;20056;-62
2022/03/26 03:45:57;;;;;;;3.35;2.38;;;24.30;34.60;;;;;;5073198;28;20547;-61
2022/03/26 03:48:24;;;;;;;4.18;2.50;;;24.30;34.70;;;;;;5068579;28;20072;-62
2022/03/26 03:50:51;;;;;;;6.72;3.47;;;24.20;34.60;;;;;;5072095;28;20048;-62
2022/03/26 03:53:18;;;;;;;6.50;4.55;;;24.30;34.70;;;;;;5070397;28;20068;-62
2022/03/26 03:55:45;;;;;;;8.55;3.03;;;24.30;34.70;;;;;;5070067;28;20135;-59
2022/03/26 03:58:12;;;;;;;5.05;2.80;;;24.20;34.60;;;;;;5071905;28;20040;-62
2022/03/26 04:00:39;;;;;;;4.72;2.83;;;24.20;34.60;;;;;;5069650;28;20060;-61
2022/03/26 04:03:08;;;;;;;4.32;3.30;;;24.20;34.70;;;;;;5073954;28;20106;-60
2022/03/26 04:05:35;;;;;;;4.60;3.90;;;24.20;34.60;;;;;;5070193;28;20045;-61
2022/03/26 04:08:02;;;;;;;3.90;3.50;;;24.10;34.50;;;;;;5073807;28;20452;-61
2022/03/26 04:10:30;;;;;;;3.72;2.63;;;24.20;34.60;;;;;;5073785;28;20752;-60
2022/03/26 04:12:57;;;;;;;3.92;3.45;;;24.20;34.60;;;;;;5077634;28;20592;-60
2022/03/26 04:15:24;;;;;;;4.40;3.10;;;24.20;34.60;;;;;;5072348;28;20056;-61
2022/03/26 04:17:52;;;;;;;4.78;2.88;;;24.10;34.60;;;;;;5072363;28;20058;-60
2022/03/26 04:20:20;;;;;;;3.20;2.90;;;24.10;34.60;;;;;;5082605;28;20035;-61
2022/03/26 04:22:47;;;;;;;3.30;2.72;;;24.10;34.60;;;;;;5070347;28;20079;-60
2022/03/26 04:25:15;;;;;;;4.40;2.97;;;24.10;34.60;;;;;;5074947;28;20028;-60
2022/03/26 04:27:44;;;;;;;3.15;2.90;;;24.10;34.60;;;;;;5072638;28;20110;-60
2022/03/26 04:30:12;;;;;;;3.75;3.25;;;24.10;34.60;;;;;;5075417;28;20044;-61
2022/03/26 04:32:39;;;;;;;3.20;2.95;;;24.10;34.60;;;;;;5072849;28;20123;-60
2022/03/26 04:35:07;;;;;;;5.47;3.78;;;24.10;35.20;;;;;;5075759;28;20033;-60
2022/03/26 04:37:36;;;;;;;4.43;2.63;;;24.10;34.60;;;;;;5070379;28;20040;-60
2022/03/26 04:40:05;;;;;;;4.30;3.45;;;24.10;34.60;;;;;;5071068;28;20073;-59
2022/03/26 04:42:32;;;;;;;6.35;3.13;;;24.00;34.60;;;;;;5073132;28;20122;-57
2022/03/26 04:44:59;;;;;;;4.88;3.40;;;24.00;34.60;;;;;;5076080;28;20123;-60
2022/03/26 04:47:27;;;;;;;3.65;2.42;;;24.00;34.60;;;;;;5070141;28;20782;-59
2022/03/26 04:49:54;;;;;;;4.00;3.33;;;24.00;34.60;;;;;;5072378;28;20036;-60
2022/03/26 04:52:21;;;;;;;5.32;3.13;;;24.00;34.60;;;;;;5069592;28;20072;-61
2022/03/26 04:54:50;;;;;;;5.15;2.80;;;24.00;34.60;;;;;;5068764;28;20673;-61
2022/03/26 04:57:18;;;;;;;3.35;2.45;;;24.00;34.60;;;;;;5077559;28;20075;-61
2022/03/26 04:59:45;;;;;;;4.30;3.35;;;24.00;34.70;;;;;;5070086;28;20059;-63
2022/03/26 05:02:12;;;;;;;9.02;3.45;;;24.00;34.70;;;;;;5075029;28;20044;-62
2022/03/26 05:04:39;;;;;;;3.70;3.10;;;23.90;34.60;;;;;;5066699;28;20139;-62
2022/03/26 05:09:49;;;;;;;5.32;2.88;;;23.90;34.60;;;;;;5070195;28;21104;-61
2022/03/26 05:12:17;;;;;;;3.45;3.05;;;23.90;34.60;;;;;;5085099;28;20400;-61
2022/03/26 05:14:44;;;;;;;4.30;3.20;;;23.90;34.60;;;;;;5074718;28;20496;-62
2022/03/26 05:17:12;;;;;;;3.55;2.42;;;23.90;35.20;;;;;;5074035;28;20796;-62
2022/03/26 05:19:39;;;;;;;7.32;2.92;;;23.90;35.30;;;;;;5077126;28;20479;-63
2022/03/26 05:22:06;;;;;;;3.58;2.65;;;23.90;34.70;;;;;;5084239;28;20048;-60
2022/03/26 05:24:33;;;;;;;5.57;3.65;;;23.90;34.60;;;;;;5070111;28;20124;-62
2022/03/26 05:27:03;;;;;;;6.95;3.00;;;23.90;34.70;;;;;;5085567;28;20051;-62
2022/03/26 05:29:30;;;;;;;7.10;3.00;;;23.90;34.70;;;;;;5084129;28;20046;-60
2022/03/26 05:31:59;;;;;;;6.38;3.67;;;23.90;34.70;;;;;;5085694;28;20040;-61
2022/03/26 05:34:26;;;;;;;4.10;3.28;;;23.90;34.80;;;;;;5083852;28;20047;-61
2022/03/26 05:36:54;;;;;;;3.88;2.88;;;23.90;34.80;;;;;;5071149;28;20036;-61
2022/03/26 05:39:21;;;;;;;3.65;3.35;;;23.90;35.00;;;;;;5082398;28;20060;-64
2022/03/26 05:41:48;;;;;;;9.48;2.50;;;23.90;35.00;;;;;;5085119;28;20066;-61
2022/03/26 05:44:17;;;;;;;6.60;3.67;;;23.90;35.10;;;;;;5084989;28;20047;-61
2022/03/26 05:46:44;;;;;;;5.55;2.85;;;23.90;35.20;;;;;;5080441;28;20063;-61
2022/03/26 05:49:11;;;;;;;3.03;2.70;;;23.90;35.40;;;;;;5085115;28;20063;-60
2022/03/26 05:51:39;;;;;;;5.75;2.50;;;23.80;35.40;;;;;;5084836;28;20067;-60
2022/03/26 05:54:06;;;;;;;5.43;3.55;;;23.80;35.50;;;;;;5086984;28;20094;-57
2022/03/26 05:56:36;;;;;;;7.13;3.50;;;23.80;35.50;;;;;;5084188;28;20420;-58
2022/03/26 05:59:04;;;;;;;3.85;3.17;;;23.90;35.70;;;;;;5081749;28;20135;-60
2022/03/26 06:01:33;;;;;;;5.88;3.25;;;23.80;35.70;;;;;;5080139;28;20059;-60
2022/03/26 06:04:00;;;;;;;4.20;3.13;;;23.80;35.70;;;;;;5084708;28;20052;-60
2022/03/26 06:06:28;;;;;;;5.18;3.70;;;23.80;35.70;;;;;;5086229;28;20047;-61
2022/03/26 06:08:55;;;;;;;9.07;3.65;;;23.80;35.70;;;;;;5083362;28;20042;-55
2022/03/26 06:11:23;;;;;;;5.03;3.25;;;23.80;35.70;;;;;;5079478;28;20941;-52
2022/03/26 06:13:50;;;;;;;7.43;2.42;;;23.80;35.80;;;;;;5079597;28;20032;-61
2022/03/26 06:16:18;;;;;;;14.05;3.50;;;23.80;35.90;;;;;;5080119;28;20040;-61
2022/03/26 06:18:47;;;;;;;3.92;3.28;;;23.80;35.90;;;;;;5085077;28;20089;-70
2022/03/26 06:21:14;;;;;;;10.82;6.25;;;23.80;36.90;;;;;;5083402;28;20049;-75
2022/03/26 06:23:42;;;;;;;8.90;3.35;;;23.90;37.00;;;;;;5080962;28;20044;-77
2022/03/26 06:26:10;;;;;;;11.38;4.25;;;23.80;37.10;;;;;;5078856;28;20040;-75
2022/03/26 06:28:38;;;;;;;13.43;4.15;;;23.90;37.70;;;;;;5074266;28;20044;-71
2022/03/26 06:31:06;;;;;;;9.60;5.68;;;23.90;38.80;;;;;;5076390;28;20033;-69
2022/03/26 06:33:33;;;;;;;18.33;5.85;;;23.90;38.80;;;;;;5086553;28;20047;-63
2022/03/26 06:36:02;;;;;;;18.42;6.05;;;23.90;39.50;;;;;;5076289;28;20409;-63
2022/03/26 06:38:31;;;;;;;11.23;5.75;;;23.90;39.60;;;;;;5077823;28;20040;-59
2022/03/26 06:40:58;;;;;;;16.63;4.28;;;23.90;39.60;;;;;;5077971;28;20057;-62
2022/03/26 06:43:26;;;;;;;9.65;4.50;;;23.90;39.50;;;;;;5076978;28;20035;-60
2022/03/26 06:45:53;;;;;;;19.30;6.70;;;23.90;39.40;;;;;;5075979;28;20129;-61
2022/03/26 06:48:20;;;;;;;12.77;4.40;;;23.90;39.30;;;;;;5074300;28;20037;-59
2022/03/26 06:50:47;;;;;;;10.05;4.40;;;24.00;39.30;;;;;;5077036;28;20036;-60
2022/03/26 06:53:16;;;;;;;5.75;3.45;;;23.90;39.10;;;;;;5070860;28;20488;-61
2022/03/26 06:55:43;;;;;;;11.57;4.25;;;23.90;38.90;;;;;;5076415;28;20051;-60
2022/03/26 06:58:10;;;;;;;13.63;4.80;;;23.90;38.70;;;;;;5082855;28;20123;-60
2022/03/26 07:00:37;;;;;;;10.38;4.75;;;24.00;38.60;;;;;;5073680;28;20055;-61
2022/03/26 07:03:04;;;;;;;7.07;3.50;;;23.90;38.40;;;;;;5074705;28;20443;-59
2022/03/26 07:05:31;;;;;;;6.82;3.78;;;23.90;38.90;;;;;;5071615;28;20607;-59
2022/03/26 07:07:58;;;;;;;8.30;4.28;;;23.90;38.10;;;;;;5075870;28;20427;-62
2022/03/26 07:10:27;;;;;;;11.20;4.78;;;23.90;37.90;;;;;;5076994;28;20052;-62
2022/03/26 07:12:54;;;;;;;8.63;4.50;;;23.90;37.80;;;;;;5072815;28;20036;-61
2022/03/26 07:15:22;;;;;;;11.27;4.85;;;23.90;37.60;;;;;;5088148;28;20044;-61
2022/03/26 07:17:49;;;;;;;7.63;4.68;;;23.90;37.50;;;;;;5073371;28;20045;-61
2022/03/26 07:20:16;;;;;;;6.75;3.80;;;23.90;37.30;;;;;;5078444;28;20101;-62
2022/03/26 07:22:43;;;;;;;5.68;3.95;;;23.90;37.20;;;;;;5080704;28;20043;-59
2022/03/26 07:25:11;;;;;;;7.80;4.07;;;23.90;37.10;;;;;;5075395;28;20044;-61
2022/03/26 07:27:40;;;;;;;4.75;3.80;;;23.90;37.00;;;;;;5071861;28;20347;-61
2022/03/26 07:30:08;;;;;;;5.78;3.72;;;23.90;37.50;;;;;;5069609;28;20795;-61
2022/03/26 07:32:35;;;;;;;6.05;3.70;;;23.90;36.80;;;;;;5071503;28;20131;-61
2022/03/26 07:35:03;;;;;;;10.52;4.32;;;23.90;36.80;;;;;;5073643;28;20211;-62
2022/03/26 07:37:30;;;;;;;10.02;4.07;;;23.90;36.70;;;;;;5077792;28;20036;-61
2022/03/26 07:39:58;;;;;;;5.63;3.90;;;23.90;36.70;;;;;;5067835;28;20040;-60
2022/03/26 07:42:25;;;;;;;5.85;3.55;;;23.90;36.60;;;;;;5079783;28;20058;-60
2022/03/26 07:44:53;;;;;;;5.85;3.25;;;23.90;36.50;;;;;;5076846;28;20124;-60
2022/03/26 07:47:21;;;;;;;7.50;3.70;;;23.90;36.40;;;;;;5071554;28;20036;-61
2022/03/26 07:49:48;;;;;;;7.57;3.78;;;23.90;36.40;;;;;;5073589;28;20176;-61
2022/03/26 07:52:16;;;;;;;6.43;4.03;;;23.90;36.30;;;;;;5069544;28;20044;-60
2022/03/26 07:54:43;;;;;;;7.45;3.95;;;23.90;36.30;;;;;;5069285;28;20040;-60
2022/03/26 07:57:10;;;;;;;5.32;3.90;;;23.90;36.20;;;;;;5081994;28;20041;-60
2022/03/26 07:59:37;;;;;;;4.07;3.72;;;23.90;36.10;;;;;;5074429;28;20040;-60
2022/03/26 08:02:06;;;;;;;9.40;4.68;;;23.90;36.10;;;;;;5078147;28;20040;-60
2022/03/26 08:04:35;;;;;;;6.15;3.83;;;23.90;36.00;;;;;;5073689;28;20055;-60
2022/03/26 08:07:02;;;;;;;5.03;3.58;;;23.90;35.90;;;;;;5066552;28;20044;-61
2022/03/26 08:09:29;;;;;;;5.55;3.55;;;23.90;35.80;;;;;;5067864;28;20098;-61
2022/03/26 08:11:57;;;;;;;3.85;3.55;;;23.90;35.80;;;;;;5081699;28;20044;-61
2022/03/26 08:14:24;;;;;;;4.20;3.90;;;23.90;35.70;;;;;;5081778;28;20044;-59
2022/03/26 08:16:52;;;;;;;2.63;2.42;;;23.90;35.70;;;;;;5080422;28;20147;-61
2022/03/26 08:19:20;;;;;;;4.68;3.20;;;23.90;35.60;;;;;;5075746;28;20048;-60
2022/03/26 08:21:47;;;;;;;4.57;3.42;;;23.90;35.60;;;;;;5074788;28;20143;-59
2022/03/26 08:24:14;;;;;;;4.22;3.05;;;23.90;35.50;;;;;;5072181;28;20074;-60
2022/03/26 08:26:42;;;;;;;2.22;2.13;;;23.90;35.40;;;;;;5074352;28;20114;-60
2022/03/26 08:29:09;;;;;;;3.53;3.20;;;23.90;35.40;;;;;;5072373;28;20155;-60
2022/03/26 08:31:36;;;;;;;7.20;3.88;;;23.90;35.30;;;;;;5066445;28;20040;-58
2022/03/26 08:34:03;;;;;;;6.80;4.13;;;23.90;35.20;;;;;;5067986;28;20106;-60
2022/03/26 08:36:31;;;;;;;4.70;3.08;;;23.90;35.20;;;;;;5076698;28;20036;-60
2022/03/26 08:38:58;;;;;;;4.40;3.97;;;23.90;35.20;;;;;;5071322;28;20072;-60
2022/03/26 08:41:26;;;;;;;6.82;3.65;;;23.90;35.10;;;;;;5071038;28;20514;-60
2022/03/26 08:43:53;;;;;;;3.35;2.83;;;23.90;35.00;;;;;;5075739;28;20097;-60
2022/03/26 08:46:21;;;;;;;10.05;3.65;;;23.90;35.00;;;;;;5067587;28;20044;-62
2022/03/26 08:48:49;;;;;;;3.40;3.10;;;23.90;35.00;;;;;;5067992;28;20044;-62
2022/03/26 08:51:17;;;;;;;4.95;4.45;;;23.90;34.90;;;;;;5075053;28;20043;-61
2022/03/26 08:53:45;;;;;;;5.55;2.78;;;23.90;34.80;;;;;;5068924;28;20419;-61
2022/03/26 08:56:13;;;;;;;3.78;2.75;;;23.90;34.80;;;;;;5072745;28;20154;-61
2022/03/26 08:58:40;;;;;;;3.53;3.22;;;23.90;34.80;;;;;;5067870;28;20071;-60
2022/03/26 09:01:08;;;;;;;6.18;3.08;;;24.00;34.70;;;;;;5072477;28;20041;-62
2022/03/26 09:03:37;;;;;;;6.45;3.17;;;24.00;34.70;;;;;;5084730;28;20052;-61
2022/03/26 09:06:07;;;;;;;2.95;2.70;;;24.00;34.60;;;;;;5084020;28;20051;-63
2022/03/26 09:08:34;;;;;;;5.00;2.90;;;24.00;34.60;;;;;;5077659;28;20048;-61
2022/03/26 09:11:04;;;;;;;4.65;3.28;;;24.00;34.60;;;;;;5078202;28;20444;-62
2022/03/26 09:13:31;;;;;;;4.00;3.20;;;24.00;34.50;;;;;;5079639;28;20042;-60
2022/03/26 09:15:59;;;;;;;3.03;2.17;;;24.00;34.40;;;;;;5071013;28;20067;-59
2022/03/26 09:18:26;;;;;;;5.70;2.92;;;24.00;34.40;;;;;;5071456;28;20047;-61
2022/03/26 09:20:54;;;;;;;5.18;2.97;;;24.00;34.30;;;;;;5086709;28;20055;-63
2022/03/26 09:23:21;;;;;;;4.22;3.15;;;24.00;34.30;;;;;;5080116;28;20408;-59
2022/03/26 09:25:48;;;;;;;6.18;2.58;;;24.00;34.20;;;;;;5078219;28;20477;-59
2022/03/26 09:28:17;;;;;;;4.00;2.88;;;24.10;34.20;;;;;;5075613;28;20042;-58
2022/03/26 09:30:45;;;;;;;3.17;2.53;;;24.10;34.20;;;;;;5072129;28;20051;-56
2022/03/26 09:33:12;;;;;;;6.07;2.92;;;24.10;34.20;;;;;;5079705;28;20045;-59
2022/03/26 09:35:39;;;;;;;2.35;2.13;;;24.10;34.10;;;;;;5080587;28;20052;-61
2022/03/26 09:38:06;;;;;;;3.65;2.30;;;24.10;34.10;;;;;;5073765;28;20037;-60
2022/03/26 09:40:34;;;;;;;3.47;2.85;;;24.10;34.00;;;;;;5075872;28;20048;-61
2022/03/26 09:43:02;;;;;;;4.28;2.05;;;24.10;34.00;;;;;;5084121;28;20642;-62
2022/03/26 09:45:31;;;;;;;3.35;2.83;;;24.20;33.90;;;;;;5078069;28;20048;-59
2022/03/26 09:47:58;;;;;;;3.20;2.90;;;24.20;33.90;;;;;;5087221;28;20051;-59
2022/03/26 09:50:26;;;;;;;4.35;2.78;;;24.20;33.90;;;;;;5078457;28;20501;-59
2022/03/26 09:52:53;;;;;;;6.45;3.72;;;24.20;33.80;;;;;;5076010;28;20106;-59
2022/03/26 09:55:21;;;;;;;2.35;2.25;;;24.30;33.70;;;;;;5071514;28;20044;-63
2022/03/26 09:57:49;;;;;;;3.97;2.13;;;24.30;33.80;;;;;;5076224;28;20044;-62
2022/03/26 10:00:17;;;;;;;2.55;2.35;;;24.30;34.30;;;;;;5074037;28;20086;-59
2022/03/26 10:02:46;;;;;;;5.88;2.55;;;24.30;33.60;;;;;;5073283;28;20072;-63
2022/03/26 10:05:18;;;;;;;5.60;2.80;;;24.30;33.50;;;;;;5070473;28;20374;-60
2022/03/26 10:07:47;;;;;;;3.63;2.53;;;24.40;33.50;;;;;;5077159;28;20040;-61
2022/03/26 10:10:23;;;;;;;3.33;3.00;;;24.40;33.50;;;;;;5071462;28;20040;-60
2022/03/26 10:12:52;;;;;;;3.28;3.00;;;24.40;33.30;;;;;;5077402;28;20040;-63
2022/03/26 10:15:19;;;;;;;3.92;3.47;;;24.40;33.30;;;;;;5079793;28;20134;-60
2022/03/26 10:17:49;;;;;;;3.55;3.13;;;24.40;33.20;;;;;;5074120;28;20044;-61
2022/03/26 10:20:17;;;;;;;3.90;3.00;;;24.40;33.10;;;;;;5073375;28;20109;-61
2022/03/26 10:22:45;;;;;;;4.65;4.32;;;24.50;33.10;;;;;;5072974;28;20036;-60
2022/03/26 10:25:14;;;;;;;5.22;4.20;;;24.50;33.00;;;;;;5074162;28;20126;-60
2022/03/26 10:27:43;;;;;;;4.43;3.55;;;24.50;33.00;;;;;;5078113;28;20032;-60
2022/03/26 10:30:12;;;;;;;3.65;3.38;;;24.50;32.90;;;;;;5083330;28;20171;-60
2022/03/26 10:32:41;;;;;;;4.68;3.22;;;24.60;32.90;;;;;;5068937;28;20051;-62
2022/03/26 10:35:12;;;;;;;6.53;3.80;;;24.60;32.80;;;;;;5073712;28;20781;-61
2022/03/26 10:37:53;;;;;;;5.55;4.03;;;24.70;32.80;;;;;;5072128;28;20052;-60
2022/03/26 10:40:26;;;;;;;5.18;4.38;;;24.70;32.80;;;;;;5070079;28;20044;-60
2022/03/26 10:42:59;;;;;;;8.30;3.92;;;24.70;32.60;;;;;;5083626;28;20424;-60
2022/03/26 10:45:28;;;;;;;4.30;3.92;;;24.70;32.60;;;;;;5074646;28;20075;-60
2022/03/26 10:47:57;;;;;;;4.03;3.60;;;24.70;32.50;;;;;;5083300;28;20054;-60
2022/03/26 10:50:27;;;;;;;5.40;3.90;;;24.80;32.50;;;;;;5075721;28;20068;-62
2022/03/26 10:52:56;;;;;;;5.90;5.28;;;24.80;32.30;;;;;;5073361;28;20039;-59
2022/03/26 10:55:24;;;;;;;5.80;4.78;;;24.90;32.20;;;;;;5076730;28;20044;-61
2022/03/26 10:57:52;;;;;;;7.32;5.13;;;24.90;32.10;;;;;;5076639;28;20106;-60
2022/03/26 11:00:20;;;;;;;6.20;5.20;;;24.90;31.90;;;;;;5074659;28;20119;-62
2022/03/26 11:02:48;;;;;;;7.50;5.15;;;25.00;31.80;;;;;;5074338;28;20044;-60
2022/03/26 11:05:15;;;;;;;6.63;4.10;;;25.10;31.70;;;;;;5077917;28;20055;-59
2022/03/26 11:07:46;;;;;;;12.05;5.32;;;25.10;31.60;;;;;;5078291;28;20059;-60
2022/03/26 11:10:14;;;;;;;4.20;3.80;;;25.20;31.60;;;;;;5074242;28;20048;-61
2022/03/26 11:12:45;;;;;;;6.47;4.63;;;25.20;31.50;;;;;;5083608;28;20040;-61
2022/03/26 11:15:19;;;;;;;5.72;3.83;;;25.30;31.60;;;;;;5073697;28;20048;-60
2022/03/26 11:18:02;;;;;;;6.93;3.63;;;25.30;31.50;;;;;;5070381;28;20532;-61
2022/03/26 11:21:02;;;;;;;4.95;4.15;;;25.30;31.50;;;;;;5077075;28;20462;-61
2022/03/26 11:23:40;;;;;;;4.68;3.63;;;25.40;31.50;;;;;;5074389;28;20047;-61
2022/03/26 11:26:22;;;;;;;3.83;2.85;;;25.40;31.50;;;;;;5067433;28;20098;-61
2022/03/26 11:29:07;;;;;;;4.35;4.03;;;25.50;31.50;;;;;;5071656;28;20131;-61
2022/03/26 11:31:43;;;;;;;8.10;3.72;;;25.50;31.40;;;;;;5071805;28;20036;-61
2022/03/26 11:34:10;;;;;;;4.60;3.72;;;25.50;31.40;;;;;;5069353;28;20150;-60
2022/03/26 11:36:37;;;;;;;4.15;3.70;;;25.60;31.50;;;;;;5073253;28;20045;-61
2022/03/26 11:39:12;;;;;;;3.92;3.60;;;25.60;31.40;;;;;;5079721;28;20037;-60
2022/03/26 11:41:41;;;;;;;3.90;2.80;;;25.70;31.40;;;;;;5078512;28;20127;-61
2022/03/26 11:44:09;;;;;;;6.28;3.25;;;25.70;31.30;;;;;;5080940;28;20036;-60
2022/03/26 11:52:17;;;;;;;3.42;3.13;;;25.80;31.20;;;;;;5078249;28;20044;-61
2022/03/26 11:54:46;;;;;;;6.53;3.35;;;25.90;31.30;;;;;;5075145;28;20117;-59
2022/03/26 11:57:19;;;;;;;4.05;3.17;;;25.90;31.20;;;;;;5072973;28;20045;-59
2022/03/26 11:59:47;;;;;;;2.83;2.63;;;26.00;31.20;;;;;;5070474;28;20048;-59
2022/03/26 12:02:20;;;;;;;3.45;2.92;;;26.00;31.20;;;;;;5075830;28;20042;-57
2022/03/26 12:04:50;;;;;;;3.35;3.08;;;26.10;31.10;;;;;;5071087;28;20786;-61
2022/03/26 12:07:17;;;;;;;3.40;3.10;;;26.10;31.00;;;;;;5066866;28;20036;-60
2022/03/26 12:09:46;;;;;;;2.47;2.28;;;26.20;31.00;;;;;;5068162;28;20043;-60
2022/03/26 12:12:18;;;;;;;2.95;2.65;;;26.20;30.90;;;;;;5078144;28;20127;-63
2022/03/26 12:15:37;;;;;;;3.38;3.08;;;26.30;30.90;;;;;;5071803;28;20139;-63
2022/03/26 12:18:09;;;;;;;3.30;2.85;;;26.40;30.90;;;;;;5066706;28;20041;-62
2022/03/26 12:20:38;;;;;;;2.63;2.40;;;26.40;30.80;;;;;;5066772;28;20082;-61
2022/03/26 12:23:08;;;;;;;2.72;2.55;;;26.40;30.80;;;;;;5072421;28;20040;-62
2022/03/26 12:25:46;;;;;;;3.53;2.80;;;26.50;30.80;;;;;;5069009;28;20044;-64
2022/03/26 12:28:16;;;;;;;3.08;2.78;;;26.50;30.70;;;;;;5075902;28;20074;-62
2022/03/26 12:30:51;;;;;;;2.50;1.55;;;26.50;30.60;;;;;;5068823;28;20072;-61
2022/03/26 12:33:19;;;;;;;2.30;1.80;;;26.60;30.60;;;;;;5072789;28;20579;-61
2022/03/26 12:35:48;;;;;;;2.88;2.67;;;26.60;30.60;;;;;;5081233;28;20131;-61
2022/03/26 12:38:16;;;;;;;1.75;1.65;;;26.70;31.20;;;;;;5076836;28;20044;-61
2022/03/26 12:40:57;;;;;;;1.80;1.63;;;26.80;30.50;;;;;;5068597;28;20158;-61
2022/03/26 12:43:25;;;;;;;3.17;2.30;;;26.80;30.40;;;;;;5069537;28;20050;-61
2022/03/26 12:45:53;;;;;;;1.85;1.65;;;26.90;30.50;;;;;;5071229;28;20404;-60
2022/03/26 12:48:23;;;;;;;3.47;1.77;;;26.90;30.40;;;;;;5071621;28;20040;-61
2022/03/26 12:50:51;;;;;;;3.90;2.38;;;27.00;30.40;;;;;;5069332;28;20106;-62
2022/03/26 12:53:19;;;;;;;2.25;1.75;;;27.00;30.40;;;;;;5076037;28;20579;-61
2022/03/26 12:55:56;;;;;;;1.60;1.38;;;27.10;30.40;;;;;;5072582;28;20052;-62
2022/03/26 13:01:11;;;;;;;3.13;1.80;;;27.20;30.90;;;;;;5067596;28;20044;-62
2022/03/26 13:03:39;;;;;;;1.67;1.38;;;27.20;30.30;;;;;;5068624;28;20508;-61